createdAt,value
2023-02-20T00:00:05.928Z,91.60
2023-02-20T00:02:32.650Z,91.60
2023-02-20T00:04:59.491Z,91.60
2023-02-20T00:07:26.226Z,91.70
2023-02-20T00:09:53.083Z,91.60
2023-02-20T00:12:20.060Z,91.60
2023-02-20T00:14:46.750Z,91.60
2023-02-20T00:17:13.477Z,91.60
2023-02-20T00:19:40.331Z,91.50
2023-02-20T00:22:07.056Z,91.60
2023-02-20T00:24:34.437Z,91.60
2023-02-20T00:27:01.382Z,91.50
2023-02-20T00:29:28.108Z,91.60
2023-02-20T00:31:55.622Z,91.60
2023-02-20T00:34:23.409Z,91.60
2023-02-20T00:36:50.150Z,91.60
2023-02-20T00:39:16.902Z,91.60
2023-02-20T00:41:43.838Z,91.70
2023-02-20T00:44:10.603Z,91.60
2023-02-20T00:46:37.419Z,91.60
2023-02-20T00:49:04.506Z,91.60
2023-02-20T00:51:32.275Z,91.60
2023-02-20T00:53:59.460Z,91.60
2023-02-20T00:56:26.239Z,91.60
2023-02-20T00:58:53.094Z,91.60
2023-02-20T01:01:19.992Z,91.60
2023-02-20T01:03:46.940Z,91.70
2023-02-20T01:06:14.054Z,91.70
2023-02-20T01:08:40.925Z,91.70
2023-02-20T01:11:07.696Z,91.60
2023-02-20T01:13:34.422Z,91.60
2023-02-20T01:16:03.173Z,91.60
2023-02-20T01:18:30.112Z,91.60
2023-02-20T01:20:56.877Z,91.60
2023-02-20T01:23:23.627Z,91.70
2023-02-20T01:25:50.450Z,91.70
2023-02-20T01:28:17.589Z,91.70
2023-02-20T01:30:44.315Z,91.70
2023-02-20T01:33:11.122Z,91.70
2023-02-20T01:35:37.896Z,91.70
2023-02-20T01:38:07.878Z,91.70
2023-02-20T01:40:35.137Z,91.70
2023-02-20T01:43:02.934Z,91.70
2023-02-20T01:45:33.867Z,91.70
2023-02-20T01:48:01.319Z,91.70
2023-02-20T01:50:31.084Z,91.70
2023-02-20T01:53:01.385Z,91.70
2023-02-20T01:55:31.387Z,91.60
2023-02-20T01:58:10.756Z,91.70
2023-02-20T02:00:37.709Z,91.70
2023-02-20T02:03:10.082Z,91.70
2023-02-20T02:05:37.832Z,91.70
2023-02-20T02:08:06.411Z,91.70
2023-02-20T02:10:56.589Z,91.60
2023-02-20T02:13:23.450Z,91.70
2023-02-20T02:15:54.306Z,91.70
2023-02-20T02:18:24.144Z,91.70
2023-02-20T02:20:54.884Z,91.70
2023-02-20T02:23:40.267Z,91.70
2023-02-20T02:26:25.713Z,91.70
2023-02-20T02:29:11.128Z,91.70
2023-02-20T02:31:37.962Z,91.70
2023-02-20T02:34:19.887Z,91.70
2023-02-20T02:36:46.594Z,91.70
2023-02-20T02:39:33.756Z,91.60
2023-02-20T02:42:00.450Z,91.70
2023-02-20T02:44:46.256Z,91.70
2023-02-20T02:47:18.407Z,91.70
2023-02-20T02:50:00.249Z,91.70
2023-02-20T02:52:46.564Z,91.70
2023-02-20T02:55:14.113Z,91.70
2023-02-20T02:57:40.875Z,91.80
2023-02-20T03:00:12.495Z,91.80
2023-02-20T03:03:02.550Z,91.70
2023-02-20T03:05:40.128Z,91.80
2023-02-20T03:08:14.401Z,91.80
2023-02-20T03:10:43.162Z,91.80
2023-02-20T03:13:12.713Z,91.80
2023-02-20T03:15:40.637Z,91.80
2023-02-20T03:18:22.621Z,92.00
2023-02-20T03:21:03.021Z,91.80
2023-02-20T03:23:35.622Z,91.70
2023-02-20T03:26:07.193Z,91.90
2023-02-20T03:28:42.249Z,91.80
2023-02-20T03:31:11.748Z,91.80
2023-02-20T03:34:13.482Z,91.90
2023-02-20T03:37:04.122Z,91.80
2023-02-20T03:39:51.414Z,91.90
2023-02-20T03:42:37.845Z,92.10
2023-02-20T03:45:05.480Z,91.80
2023-02-20T03:47:35.318Z,91.80
2023-02-20T03:50:07.547Z,91.80
2023-02-20T03:52:34.296Z,91.80
2023-02-20T03:55:01.061Z,91.80
2023-02-20T03:57:30.451Z,91.90
2023-02-20T04:00:00.013Z,92.10
2023-02-20T04:02:29.862Z,91.90
2023-02-20T04:04:58.567Z,91.90
2023-02-20T04:07:27.190Z,91.90
2023-02-20T04:09:55.586Z,92.00
2023-02-20T04:12:24.372Z,91.80
2023-02-20T04:14:52.155Z,91.80
2023-02-20T04:17:21.879Z,91.80
2023-02-20T04:19:48.718Z,91.80
2023-02-20T04:22:20.777Z,91.80
2023-02-20T04:24:55.058Z,91.90
2023-02-20T04:27:21.978Z,91.90
2023-02-20T04:29:49.929Z,91.80
2023-02-20T04:32:16.937Z,92.00
2023-02-20T04:34:43.766Z,91.90
2023-02-20T04:37:14.213Z,91.90
2023-02-20T04:39:41.198Z,92.10
2023-02-20T04:42:07.968Z,92.00
2023-02-20T04:44:35.285Z,92.00
2023-02-20T04:47:04.272Z,91.90
2023-02-20T04:49:31.267Z,92.00
2023-02-20T04:51:58.046Z,91.90
2023-02-20T04:54:25.419Z,91.90
2023-02-20T04:56:52.353Z,92.10
2023-02-20T04:59:19.147Z,92.00
2023-02-20T05:01:48.476Z,91.90
2023-02-20T05:04:15.802Z,91.90
2023-02-20T05:06:46.874Z,91.90
2023-02-20T05:09:14.604Z,91.90
2023-02-20T05:11:41.662Z,91.90
2023-02-20T05:14:08.437Z,91.90
2023-02-20T05:16:36.977Z,92.00
2023-02-20T05:19:03.735Z,91.90
2023-02-20T05:21:48.941Z,91.90
2023-02-20T05:24:15.755Z,91.90
2023-02-20T05:26:42.622Z,91.90
2023-02-20T05:29:12.258Z,91.90
2023-02-20T05:31:42.382Z,92.00
2023-02-20T05:34:09.229Z,92.00
2023-02-20T05:36:36.073Z,91.90
2023-02-20T05:39:03.754Z,92.00
2023-02-20T05:41:30.976Z,91.90
2023-02-20T05:43:59.053Z,92.00
2023-02-20T05:46:26.546Z,92.00
2023-02-20T05:48:54.282Z,91.90
2023-02-20T05:51:22.326Z,91.90
2023-02-20T05:53:49.080Z,92.00
2023-02-20T05:56:15.867Z,92.00
2023-02-20T05:58:44.382Z,92.10
2023-02-20T06:01:22.975Z,92.00
2023-02-20T06:03:50.120Z,92.10
2023-02-20T06:06:17.100Z,92.00
2023-02-20T06:08:44.217Z,92.10
2023-02-20T06:11:12.216Z,92.00
2023-02-20T06:13:45.420Z,92.10
2023-02-20T06:16:13.076Z,92.00
2023-02-20T06:18:41.440Z,92.00
2023-02-20T06:21:09.268Z,92.00
2023-02-20T06:23:39.379Z,92.00
2023-02-20T06:26:06.901Z,91.90
2023-02-20T06:28:33.848Z,92.00
2023-02-20T06:31:02.031Z,91.90
2023-02-20T06:33:29.332Z,92.00
2023-02-20T06:35:56.368Z,92.10
2023-02-20T06:38:23.371Z,92.00
2023-02-20T06:40:50.252Z,92.00
2023-02-20T06:43:17.146Z,92.00
2023-02-20T06:45:44.366Z,91.90
2023-02-20T06:48:11.187Z,91.90
2023-02-20T06:50:37.943Z,92.10
2023-02-20T06:53:04.711Z,91.90
2023-02-20T06:55:31.625Z,91.90
2023-02-20T06:57:58.638Z,92.00
2023-02-20T07:00:25.581Z,92.10
2023-02-20T07:02:52.447Z,92.10
2023-02-20T07:05:19.393Z,92.00
2023-02-20T07:07:46.252Z,91.90
2023-02-20T07:10:13.019Z,91.80
2023-02-20T07:12:39.866Z,91.80
2023-02-20T07:15:07.478Z,91.70
2023-02-20T07:17:34.255Z,91.70
2023-02-20T07:20:01.079Z,91.80
2023-02-20T07:22:27.909Z,91.70
2023-02-20T07:24:55.096Z,91.80
2023-02-20T07:27:22.032Z,91.80
2023-02-20T07:29:49.819Z,91.80
2023-02-20T07:32:20.428Z,91.90
2023-02-20T07:35:02.409Z,92.10
2023-02-20T07:37:30.877Z,92.00
2023-02-20T07:39:57.659Z,91.90
2023-02-20T07:42:24.693Z,92.00
2023-02-20T07:44:51.640Z,92.00
2023-02-20T07:47:18.434Z,91.90
2023-02-20T07:49:45.180Z,91.90
2023-02-20T07:52:12.023Z,91.90
2023-02-20T07:54:38.802Z,91.90
2023-02-20T07:57:05.605Z,91.90
2023-02-20T07:59:32.539Z,91.90
2023-02-20T08:01:59.342Z,91.90
2023-02-20T08:04:27.427Z,91.90
2023-02-20T08:06:54.306Z,91.90
2023-02-20T08:09:21.090Z,91.90
2023-02-20T08:11:47.865Z,91.90
2023-02-20T08:14:15.148Z,91.90
2023-02-20T08:16:41.930Z,91.90
2023-02-20T08:19:08.737Z,91.90
2023-02-20T08:21:35.598Z,92.00
2023-02-20T08:24:02.323Z,92.00
2023-02-20T08:26:29.106Z,92.00
2023-02-20T08:28:55.922Z,92.00
2023-02-20T08:31:32.153Z,92.00
2023-02-20T08:34:00.052Z,92.00
2023-02-20T08:36:27.138Z,92.00
2023-02-20T08:38:54.985Z,92.00
2023-02-20T08:41:21.895Z,92.00
2023-02-20T08:43:48.682Z,92.00
2023-02-20T08:46:15.798Z,92.00
2023-02-20T08:48:43.150Z,92.00
2023-02-20T08:51:09.956Z,92.10
2023-02-20T08:53:37.684Z,92.00
2023-02-20T08:56:05.302Z,92.10
2023-02-20T08:58:32.048Z,92.00
2023-02-20T09:00:59.050Z,92.10
2023-02-20T09:03:27.281Z,92.10
2023-02-20T09:05:54.167Z,92.10
2023-02-20T09:08:20.980Z,92.10
2023-02-20T09:10:48.231Z,92.10
2023-02-20T09:13:15.311Z,92.10
2023-02-20T09:15:42.230Z,92.10
2023-02-20T09:18:11.595Z,92.10
2023-02-20T09:20:38.507Z,92.10
2023-02-20T09:23:05.669Z,92.10
2023-02-20T09:25:32.447Z,92.10
2023-02-20T09:27:59.223Z,92.10
2023-02-20T09:30:26.152Z,92.10
2023-02-20T09:32:53.129Z,92.10
2023-02-20T09:35:22.488Z,92.20
2023-02-20T09:37:50.132Z,92.20
2023-02-20T09:40:17.237Z,92.20
2023-02-20T09:42:51.774Z,92.20
2023-02-20T09:45:20.768Z,92.20
2023-02-20T09:47:47.507Z,92.30
2023-02-20T09:50:34.631Z,92.30
2023-02-20T09:53:05.756Z,92.30
2023-02-20T09:55:38.532Z,92.30
2023-02-20T09:58:06.410Z,92.30
2023-02-20T10:00:37.683Z,92.30
2023-02-20T10:03:25.250Z,92.30
2023-02-20T10:05:53.061Z,92.30
2023-02-20T10:08:21.603Z,92.40
2023-02-20T10:10:49.405Z,92.40
2023-02-20T10:13:42.442Z,92.40
2023-02-20T10:16:21.644Z,92.40
2023-02-20T10:18:51.419Z,92.40
2023-02-20T10:21:36.577Z,92.40
2023-02-20T10:24:13.957Z,92.40
2023-02-20T10:26:43.718Z,92.40
2023-02-20T10:29:15.030Z,92.50
2023-02-20T10:31:45.873Z,92.50
2023-02-20T10:34:12.656Z,92.50
2023-02-20T10:36:43.180Z,92.50
2023-02-20T10:39:11.614Z,92.50
2023-02-20T10:41:55.067Z,92.60
2023-02-20T10:44:35.518Z,92.60
2023-02-20T10:47:06.998Z,92.60
2023-02-20T10:49:36.662Z,92.70
2023-02-20T10:52:06.165Z,92.80
2023-02-20T10:54:46.731Z,92.80
2023-02-20T10:57:28.428Z,92.70
2023-02-20T11:00:02.997Z,92.80
2023-02-20T11:02:32.462Z,92.80
2023-02-20T11:05:03.647Z,92.80
2023-02-20T11:07:30.506Z,92.80
2023-02-20T11:09:57.299Z,92.90
2023-02-20T11:12:32.674Z,92.90
2023-02-20T11:15:00.976Z,92.90
2023-02-20T11:17:29.723Z,92.90
2023-02-20T11:20:05.140Z,93.00
2023-02-20T11:23:03.985Z,93.00
2023-02-20T11:25:34.130Z,93.10
2023-02-20T11:28:21.183Z,93.10
2023-02-20T11:30:50.174Z,93.10
2023-02-20T11:33:22.065Z,93.10
2023-02-20T11:35:59.340Z,93.10
2023-02-20T11:38:31.504Z,93.10
2023-02-20T11:41:01.776Z,93.20
2023-02-20T11:43:31.472Z,93.20
2023-02-20T11:46:16.721Z,93.20
2023-02-20T11:48:52.746Z,93.20
2023-02-20T11:51:37.967Z,93.30
2023-02-20T11:54:15.122Z,93.30
2023-02-20T11:57:00.512Z,93.30
2023-02-20T11:59:27.312Z,93.30
2023-02-20T12:02:00.824Z,93.40
2023-02-20T12:04:28.312Z,93.40
2023-02-20T12:06:55.139Z,93.40
2023-02-20T12:09:25.400Z,93.40
2023-02-20T12:11:54.381Z,93.50
2023-02-20T12:14:21.274Z,93.50
2023-02-20T12:16:50.794Z,93.50
2023-02-20T12:19:38.004Z,93.50
2023-02-20T12:22:28.149Z,93.50
2023-02-20T12:25:13.505Z,93.50
2023-02-20T12:27:40.192Z,93.50
2023-02-20T12:30:09.537Z,93.60
2023-02-20T12:32:45.838Z,93.60
2023-02-20T12:35:22.062Z,93.60
2023-02-20T12:37:51.470Z,93.60
2023-02-20T12:40:36.529Z,93.60
2023-02-20T12:43:24.505Z,93.60
2023-02-20T12:46:06.373Z,93.70
2023-02-20T12:48:51.765Z,93.70
2023-02-20T12:51:21.081Z,93.70
2023-02-20T12:53:50.476Z,93.70
2023-02-20T12:56:17.267Z,93.70
2023-02-20T12:58:59.288Z,93.70
2023-02-20T13:01:38.764Z,93.80
2023-02-20T13:04:11.423Z,93.80
2023-02-20T13:06:52.127Z,93.80
2023-02-20T13:09:23.943Z,93.80
2023-02-20T13:11:58.876Z,93.80
2023-02-20T13:14:29.856Z,93.90
2023-02-20T13:17:15.521Z,93.90
2023-02-20T13:19:45.920Z,93.90
2023-02-20T13:22:12.683Z,93.90
2023-02-20T13:24:39.925Z,93.90
2023-02-20T13:27:10.871Z,94.00
2023-02-20T13:29:38.854Z,94.00
2023-02-20T13:32:18.114Z,94.00
2023-02-20T13:34:44.898Z,94.00
2023-02-20T13:37:30.781Z,94.00
2023-02-20T13:39:57.543Z,94.00
2023-02-20T13:42:28.543Z,94.00
2023-02-20T13:44:57.262Z,94.10
2023-02-20T13:47:28.516Z,94.10
2023-02-20T13:50:00.041Z,94.10
2023-02-20T13:52:29.855Z,94.10
2023-02-20T13:54:56.677Z,94.10
2023-02-20T13:57:23.845Z,94.10
2023-02-20T13:59:51.702Z,94.10
2023-02-20T14:02:23.500Z,94.20
2023-02-20T14:04:54.449Z,94.20
2023-02-20T14:07:30.055Z,94.10
2023-02-20T14:10:06.240Z,94.20
2023-02-20T14:12:33.700Z,94.20
2023-02-20T14:15:03.226Z,94.20
2023-02-20T14:17:30.156Z,94.50
2023-02-20T14:20:08.451Z,94.20
2023-02-20T14:22:40.111Z,94.30
2023-02-20T14:25:12.627Z,94.30
2023-02-20T14:27:39.884Z,94.30
2023-02-20T14:30:09.859Z,94.30
2023-02-20T14:32:37.016Z,94.30
2023-02-20T14:35:24.332Z,94.30
2023-02-20T14:38:09.458Z,94.30
2023-02-20T14:40:41.724Z,94.10
2023-02-20T14:43:28.731Z,94.10
2023-02-20T14:46:03.170Z,94.20
2023-02-20T14:48:31.932Z,94.20
2023-02-20T14:51:15.788Z,94.30
2023-02-20T14:53:43.699Z,94.20
2023-02-20T14:56:11.523Z,94.20
2023-02-20T14:58:38.839Z,94.30
2023-02-20T15:01:24.456Z,94.30
2023-02-20T15:03:57.663Z,94.30
2023-02-20T15:06:26.456Z,94.40
2023-02-20T15:09:02.178Z,94.40
2023-02-20T15:11:32.696Z,94.70
2023-02-20T15:14:00.962Z,94.40
2023-02-20T15:16:29.512Z,94.50
2023-02-20T15:18:56.308Z,94.50
2023-02-20T15:21:37.113Z,94.50
2023-02-20T15:24:15.182Z,94.50
2023-02-20T15:26:43.581Z,94.50
2023-02-20T15:29:23.965Z,94.50
2023-02-20T15:31:58.656Z,94.50
2023-02-20T15:34:27.136Z,94.50
2023-02-20T15:36:53.984Z,94.50
2023-02-20T15:39:21.139Z,94.50
2023-02-20T15:41:48.637Z,94.50
2023-02-20T15:44:16.231Z,94.50
2023-02-20T15:46:43.220Z,94.50
2023-02-20T15:49:16.065Z,94.50
2023-02-20T15:51:52.469Z,94.50
2023-02-20T15:54:22.454Z,94.60
2023-02-20T15:56:49.304Z,94.60
2023-02-20T15:59:16.888Z,94.60
2023-02-20T16:01:43.719Z,94.70
2023-02-20T16:04:11.349Z,94.60
2023-02-20T16:06:38.135Z,94.60
2023-02-20T16:09:04.850Z,94.60
2023-02-20T16:11:35.725Z,94.70
2023-02-20T16:14:03.173Z,94.70
2023-02-20T16:16:32.862Z,94.70
2023-02-20T16:18:59.844Z,94.70
2023-02-20T16:21:26.741Z,94.70
2023-02-20T16:23:53.576Z,94.70
2023-02-20T16:26:22.660Z,94.70
2023-02-20T16:28:52.620Z,94.70
2023-02-20T16:31:19.463Z,94.70
2023-02-20T16:33:46.503Z,94.70
2023-02-20T16:36:19.936Z,94.80
2023-02-20T16:38:50.288Z,94.80
2023-02-20T16:41:17.083Z,94.80
2023-02-20T16:43:43.843Z,94.80
2023-02-20T16:46:10.773Z,94.80
2023-02-20T16:48:37.530Z,94.80
2023-02-20T16:51:06.473Z,94.80
2023-02-20T16:53:33.385Z,94.80
2023-02-20T16:56:00.151Z,94.80
2023-02-20T16:58:26.936Z,94.80
2023-02-20T17:00:57.888Z,94.80
2023-02-20T17:03:25.391Z,94.80
2023-02-20T17:05:58.609Z,94.70
2023-02-20T17:08:26.051Z,94.70
2023-02-20T17:10:53.011Z,94.70
2023-02-20T17:13:19.931Z,94.80
2023-02-20T17:15:47.878Z,94.70
2023-02-20T17:18:15.116Z,94.80
2023-02-20T17:20:42.115Z,94.80
2023-02-20T17:23:08.901Z,94.80
2023-02-20T17:25:35.956Z,94.80
2023-02-20T17:28:03.992Z,95.10
2023-02-20T17:30:30.891Z,94.80
2023-02-20T17:32:57.698Z,94.80
2023-02-20T17:35:24.573Z,94.70
2023-02-20T17:37:51.452Z,94.80
2023-02-20T17:40:18.344Z,94.80
2023-02-20T17:42:45.228Z,94.80
2023-02-20T17:45:12.028Z,94.80
2023-02-20T17:47:39.508Z,94.80
2023-02-20T17:50:07.118Z,94.80
2023-02-20T17:52:34.025Z,94.70
2023-02-20T17:55:00.954Z,94.70
2023-02-20T17:57:28.440Z,94.60
2023-02-20T17:59:55.665Z,94.80
2023-02-20T18:02:22.454Z,94.70
2023-02-20T18:04:49.362Z,94.80
2023-02-20T18:07:17.483Z,94.70
2023-02-20T18:09:44.343Z,94.80
2023-02-20T18:12:11.256Z,94.80
2023-02-20T18:14:38.145Z,94.80
2023-02-20T18:17:04.932Z,94.70
2023-02-20T18:19:32.516Z,94.80
2023-02-20T18:21:59.305Z,94.70
2023-02-20T18:24:26.542Z,94.60
2023-02-20T18:26:54.296Z,94.70
2023-02-20T18:29:21.618Z,94.80
2023-02-20T18:31:49.128Z,94.70
2023-02-20T18:34:16.075Z,94.80
2023-02-20T18:36:42.924Z,94.80
2023-02-20T18:39:10.044Z,94.80
2023-02-20T18:41:37.736Z,94.80
2023-02-20T18:44:04.658Z,94.80
2023-02-20T18:46:32.522Z,94.80
2023-02-20T18:49:00.004Z,94.80
2023-02-20T18:51:30.956Z,94.70
2023-02-20T18:53:57.783Z,94.80
2023-02-20T18:56:25.257Z,94.80
2023-02-20T18:58:52.434Z,94.70
2023-02-20T19:01:20.658Z,94.70
2023-02-20T19:03:48.788Z,95.00
2023-02-20T19:06:29.416Z,94.80
2023-02-20T19:08:56.244Z,94.70
2023-02-20T19:11:23.076Z,94.80
2023-02-20T19:13:49.824Z,94.70
2023-02-20T19:16:17.296Z,94.70
2023-02-20T19:18:50.452Z,94.70
2023-02-20T19:21:18.053Z,94.70
2023-02-20T19:23:45.796Z,95.00
2023-02-20T19:26:13.421Z,94.70
2023-02-20T19:28:42.361Z,94.60
2023-02-20T19:31:10.065Z,94.70
2023-02-20T19:33:37.004Z,94.70
2023-02-20T19:36:04.157Z,94.70
2023-02-20T19:38:30.944Z,94.70
2023-02-20T19:40:57.930Z,94.70
2023-02-20T19:43:29.311Z,94.60
2023-02-20T19:45:56.291Z,94.60
2023-02-20T19:48:23.178Z,94.60
2023-02-20T19:50:50.385Z,94.60
2023-02-20T19:53:17.441Z,94.60
2023-02-20T19:55:44.962Z,94.90
2023-02-20T19:58:13.246Z,94.60
2023-02-20T20:00:40.180Z,94.60
2023-02-20T20:03:07.231Z,94.60
2023-02-20T20:05:35.375Z,94.50
2023-02-20T20:08:02.632Z,94.60
2023-02-20T20:10:31.875Z,94.60
2023-02-20T20:13:01.129Z,94.60
2023-02-20T20:15:29.653Z,94.50
2023-02-20T20:18:01.563Z,94.50
2023-02-20T20:20:31.922Z,94.50
2023-02-20T20:23:03.658Z,94.60
2023-02-20T20:25:33.457Z,94.60
2023-02-20T20:28:05.215Z,94.50
2023-02-20T20:30:33.943Z,94.60
2023-02-20T20:33:01.419Z,94.50
2023-02-20T20:35:29.987Z,94.40
2023-02-20T20:37:58.087Z,94.50
2023-02-20T20:40:27.982Z,94.40
2023-02-20T20:42:58.219Z,94.40
2023-02-20T20:45:29.023Z,94.50
2023-02-20T20:47:58.754Z,94.40
2023-02-20T20:50:32.689Z,94.40
2023-02-20T20:53:04.709Z,94.50
2023-02-20T20:55:35.118Z,94.60
2023-02-20T20:58:04.760Z,94.50
2023-02-20T21:00:35.750Z,94.60
2023-02-20T21:03:04.804Z,94.60
2023-02-20T21:05:35.239Z,94.50
2023-02-20T21:08:03.353Z,94.40
2023-02-20T21:10:30.825Z,94.40
2023-02-20T21:13:00.228Z,94.30
2023-02-20T21:15:28.402Z,94.30
2023-02-20T21:17:56.392Z,94.30
2023-02-20T21:20:27.164Z,94.20
2023-02-20T21:22:57.852Z,94.30
2023-02-20T21:25:28.391Z,94.30
2023-02-20T21:27:57.114Z,94.30
2023-02-20T21:30:25.172Z,94.30
2023-02-20T21:32:52.302Z,94.30
2023-02-20T21:35:20.770Z,94.20
2023-02-20T21:37:48.878Z,94.30
2023-02-20T21:40:18.053Z,94.20
2023-02-20T21:43:14.220Z,94.10
2023-02-20T21:45:41.008Z,94.30
2023-02-20T21:48:07.821Z,94.30
2023-02-20T21:50:34.718Z,94.30
2023-02-20T21:53:02.128Z,94.30
2023-02-20T21:55:29.508Z,94.20
2023-02-20T21:57:56.737Z,94.40
2023-02-20T22:00:42.290Z,94.30
2023-02-20T22:03:27.405Z,94.20
2023-02-20T22:06:12.665Z,94.20
2023-02-20T22:08:57.811Z,94.20
2023-02-20T22:11:43.088Z,94.20
2023-02-20T22:14:28.627Z,94.20
2023-02-20T22:17:13.698Z,94.30
2023-02-20T22:19:59.236Z,94.30
2023-02-20T22:22:44.651Z,94.30
2023-02-20T22:25:29.896Z,94.30
2023-02-20T22:28:14.986Z,94.30
2023-02-20T22:31:00.384Z,94.30
2023-02-20T22:33:45.533Z,94.30
2023-02-20T22:36:30.941Z,94.30
2023-02-20T22:39:16.178Z,94.30
2023-02-20T22:42:01.306Z,94.20
2023-02-20T22:44:46.390Z,94.30
2023-02-20T22:47:31.430Z,94.20
2023-02-20T22:50:16.610Z,94.20
2023-02-20T22:53:01.728Z,94.20
2023-02-20T22:55:46.902Z,94.30
2023-02-20T22:58:32.160Z,94.20
2023-02-20T23:01:17.124Z,94.20
2023-02-20T23:04:02.328Z,94.30
2023-02-20T23:06:47.462Z,94.30
2023-02-20T23:09:32.614Z,94.20
2023-02-20T23:12:17.560Z,94.20
2023-02-20T23:15:02.707Z,94.00
2023-02-20T23:17:48.011Z,94.10
2023-02-20T23:20:37.508Z,94.20
2023-02-20T23:23:23.592Z,94.00
2023-02-20T23:26:09.109Z,93.90
2023-02-20T23:28:54.076Z,93.90
2023-02-20T23:31:49.395Z,93.90
2023-02-20T23:34:34.667Z,94.00
2023-02-20T23:37:19.951Z,94.00
2023-02-20T23:40:04.996Z,94.00
2023-02-20T23:42:50.235Z,94.00
2023-02-20T23:45:35.276Z,94.00
2023-02-20T23:48:20.750Z,94.00
2023-02-20T23:51:06.086Z,94.10
2023-02-20T23:53:55.287Z,94.10
2023-02-20T23:56:40.953Z,94.10
2023-02-20T23:59:26.454Z,94.10
